Time;durP1;ratioP1;P1;durP2;ratioP2;P2;SDS_P1;SDS_P2;PMS_P1;PMS_P2;Temp;Humidity;BMP_temperature;BMP_pressure;BME280_temperature;BME280_humidity;BME280_pressure;Samples;Min_cycle;Max_cycle;Signal;HPM_P1;HPM_P2
2022/03/24 00:01:55;;;;;;;23.40;14.83;;;10.30;43.50;;;;;;7404322;19;20365;-71
2022/03/24 00:04:24;;;;;;;21.13;13.93;;;10.30;43.50;;;;;;7397293;19;20379;-71
2022/03/24 00:06:56;;;;;;;23.67;15.50;;;10.30;43.60;;;;;;7400434;19;20440;-72
2022/03/24 00:09:25;;;;;;;28.17;15.77;;;10.30;43.50;;;;;;7381575;19;20404;-73
2022/03/24 00:11:58;;;;;;;21.73;14.57;;;10.20;43.50;;;;;;7382697;19;20416;-72
2022/03/24 00:14:27;;;;;;;22.77;14.45;;;10.00;43.70;;;;;;7380989;19;20427;-71
2022/03/24 00:16:57;;;;;;;21.07;14.30;;;10.20;43.80;;;;;;7378521;19;20124;-72
2022/03/24 00:19:26;;;;;;;22.70;14.67;;;10.20;43.80;;;;;;7373665;19;20808;-72
2022/03/24 00:21:58;;;;;;;23.40;15.45;;;10.20;43.70;;;;;;7376441;19;21521;-72
2022/03/24 00:24:28;;;;;;;23.40;14.80;;;10.00;44.10;;;;;;7374944;19;20174;-72
2022/03/24 00:27:16;;;;;;;22.33;14.13;;;9.90;45.10;;;;;;7378778;19;20131;-71
2022/03/24 00:29:46;;;;;;;22.37;14.53;;;9.90;45.10;;;;;;7377698;19;20525;-72
2022/03/24 00:32:15;;;;;;;24.13;14.93;;;9.90;45.20;;;;;;7374496;19;20409;-72
2022/03/24 00:34:45;;;;;;;20.80;13.53;;;9.90;45.00;;;;;;7378469;19;20408;-72
2022/03/24 00:37:18;;;;;;;19.87;14.37;;;9.90;45.10;;;;;;7378784;19;20442;-72
2022/03/24 00:39:48;;;;;;;24.30;14.23;;;9.90;45.30;;;;;;7379740;19;20380;-72
2022/03/24 00:42:21;;;;;;;21.67;13.83;;;9.80;45.50;;;;;;7375704;19;20940;-72
2022/03/24 00:44:51;;;;;;;21.10;14.90;;;9.90;45.40;;;;;;7377527;19;20447;-72
2022/03/24 00:47:21;;;;;;;23.23;14.40;;;9.90;45.40;;;;;;7376375;19;20376;-72
2022/03/24 00:49:53;;;;;;;24.60;15.27;;;9.90;45.40;;;;;;7380208;19;20384;-73
2022/03/24 00:52:25;;;;;;;25.40;16.00;;;9.80;45.40;;;;;;7370207;19;20409;-73
2022/03/24 00:54:57;;;;;;;19.83;12.90;;;9.70;45.60;;;;;;7373355;19;20154;-74
2022/03/24 00:57:27;;;;;;;27.50;16.33;;;9.50;46.00;;;;;;7376259;19;20164;-73
2022/03/24 00:59:57;;;;;;;20.23;13.88;;;9.40;46.40;;;;;;7374117;19;20139;-73
2022/03/24 01:02:27;;;;;;;28.38;14.65;;;9.20;46.30;;;;;;7368329;19;20138;-72
2022/03/24 01:04:56;;;;;;;21.10;14.48;;;9.20;46.60;;;;;;7375483;19;20147;-71
2022/03/24 01:07:28;;;;;;;23.52;15.27;;;9.30;46.40;;;;;;7367899;19;20151;-70
2022/03/24 01:09:58;;;;;;;28.00;13.67;;;9.40;46.50;;;;;;7373637;19;20169;-70
2022/03/24 01:12:29;;;;;;;22.63;14.75;;;9.30;46.40;;;;;;7374418;19;20734;-71
2022/03/24 01:14:59;;;;;;;21.58;14.63;;;9.20;46.50;;;;;;7373164;19;20251;-70
2022/03/24 01:17:29;;;;;;;22.60;14.90;;;9.30;46.50;;;;;;7342119;19;20183;-71
2022/03/24 01:19:58;;;;;;;22.60;14.55;;;9.30;46.70;;;;;;7351850;19;20245;-73
2022/03/24 01:22:31;;;;;;;23.92;14.05;;;9.40;46.60;;;;;;7337824;19;20139;-72
2022/03/24 01:25:00;;;;;;;29.70;15.00;;;9.40;46.70;;;;;;7366396;19;20148;-73
2022/03/24 01:27:30;;;;;;;24.35;15.20;;;9.30;46.80;;;;;;7352143;19;20144;-71
2022/03/24 01:30:01;;;;;;;26.50;14.40;;;9.20;46.90;;;;;;7351511;19;20160;-71
2022/03/24 01:32:31;;;;;;;23.17;14.93;;;9.10;47.10;;;;;;7342384;19;22387;-71
2022/03/24 01:35:01;;;;;;;22.73;14.25;;;9.00;47.20;;;;;;7351587;19;20165;-71
2022/03/24 01:37:36;;;;;;;26.20;15.25;;;9.00;47.00;;;;;;7344096;19;20135;-71
2022/03/24 01:40:10;;;;;;;22.98;14.27;;;9.00;47.20;;;;;;7343936;19;20247;-71
2022/03/24 01:42:41;;;;;;;25.95;16.02;;;9.00;47.30;;;;;;7345551;19;20139;-72
2022/03/24 01:45:12;;;;;;;28.23;15.65;;;9.00;47.40;;;;;;7340542;19;20474;-71
2022/03/24 01:47:44;;;;;;;25.55;14.48;;;9.00;47.10;;;;;;7349951;19;20169;-71
2022/03/24 01:50:13;;;;;;;21.17;15.77;;;9.10;47.40;;;;;;7361308;19;20139;-71
2022/03/24 01:52:45;;;;;;;22.55;14.50;;;9.10;47.50;;;;;;7344355;19;20147;-72
2022/03/24 01:55:16;;;;;;;24.77;14.75;;;9.00;47.50;;;;;;7349620;19;20155;-71
2022/03/24 01:57:48;;;;;;;23.17;15.10;;;8.80;47.80;;;;;;7345720;19;20142;-72
2022/03/24 02:00:19;;;;;;;26.25;16.23;;;8.80;47.90;;;;;;7339336;19;20140;-72
2022/03/24 02:02:48;;;;;;;22.98;15.02;;;8.80;47.70;;;;;;7339524;19;20687;-71
2022/03/24 02:05:18;;;;;;;26.60;15.57;;;8.90;47.60;;;;;;7342014;19;20168;-71
2022/03/24 02:07:50;;;;;;;23.25;14.43;;;8.90;47.80;;;;;;7365376;19;20140;-72
2022/03/24 02:10:20;;;;;;;21.75;14.98;;;8.80;48.20;;;;;;7347490;19;20139;-74
2022/03/24 02:12:52;;;;;;;25.35;14.35;;;8.70;48.20;;;;;;7342741;19;20246;-73
2022/03/24 02:15:24;;;;;;;22.83;14.95;;;8.60;48.10;;;;;;7354632;19;20141;-72
2022/03/24 02:17:54;;;;;;;20.60;13.27;;;8.50;48.10;;;;;;7373036;19;20152;-73
2022/03/24 02:20:28;;;;;;;23.23;14.52;;;8.50;48.30;;;;;;7362643;19;20142;-73
2022/03/24 02:23:01;;;;;;;25.65;15.50;;;8.40;48.40;;;;;;7352667;19;20484;-74
2022/03/24 02:25:35;;;;;;;22.35;15.10;;;8.30;48.80;;;;;;7335517;19;20147;-74
2022/03/24 02:28:07;;;;;;;25.33;16.00;;;8.40;48.60;;;;;;7342075;19;20132;-74
2022/03/24 02:30:36;;;;;;;20.85;15.18;;;8.50;48.20;;;;;;7341030;19;20244;-74
2022/03/24 02:33:05;;;;;;;25.70;15.98;;;8.40;48.50;;;;;;7353065;19;21001;-73
2022/03/24 02:35:37;;;;;;;24.63;15.90;;;8.40;48.90;;;;;;7372015;19;20131;-73
2022/03/24 02:38:09;;;;;;;23.00;15.27;;;8.40;48.70;;;;;;7343073;19;20139;-73
2022/03/24 02:40:39;;;;;;;25.25;15.63;;;8.30;48.80;;;;;;7348508;19;20159;-73
2022/03/24 02:43:09;;;;;;;23.33;15.25;;;8.40;49.00;;;;;;7373987;19;20189;-74
2022/03/24 02:45:38;;;;;;;23.25;15.23;;;8.30;49.20;;;;;;7359133;19;20152;-73
2022/03/24 02:48:09;;;;;;;22.98;14.23;;;8.10;49.20;;;;;;7334816;19;20144;-73
2022/03/24 02:50:38;;;;;;;26.00;15.63;;;8.30;48.80;;;;;;7341341;19;20199;-73
2022/03/24 02:53:10;;;;;;;24.85;15.05;;;8.20;49.30;;;;;;7349351;19;20131;-72
2022/03/24 02:55:40;;;;;;;21.83;14.23;;;8.10;49.00;;;;;;7372059;19;20672;-72
2022/03/24 02:58:09;;;;;;;24.25;15.00;;;8.20;48.70;;;;;;7361306;19;20132;-72
2022/03/24 03:00:39;;;;;;;22.55;14.43;;;8.30;48.80;;;;;;7371856;19;20147;-72
2022/03/24 03:03:10;;;;;;;22.40;14.85;;;8.20;48.90;;;;;;7355083;19;20139;-72
2022/03/24 03:05:39;;;;;;;24.67;14.30;;;8.10;49.00;;;;;;7371396;19;20179;-71
2022/03/24 03:08:11;;;;;;;20.05;13.73;;;8.00;48.70;;;;;;7359471;19;20132;-70
2022/03/24 03:10:41;;;;;;;22.48;14.30;;;8.00;49.00;;;;;;7359629;19;20139;-72
2022/03/24 03:13:10;;;;;;;25.38;16.17;;;8.00;48.80;;;;;;7363185;19;20758;-72
2022/03/24 03:15:40;;;;;;;24.60;15.07;;;8.00;48.90;;;;;;7386946;19;20147;-72
2022/03/24 03:18:09;;;;;;;21.92;14.23;;;8.00;49.10;;;;;;7377018;19;20184;-72
2022/03/24 03:20:41;;;;;;;23.73;14.20;;;8.00;48.90;;;;;;7387017;19;20142;-72
2022/03/24 03:23:13;;;;;;;25.45;14.30;;;7.80;48.70;;;;;;7402715;19;20147;-71
2022/03/24 03:25:42;;;;;;;22.33;13.80;;;7.70;49.10;;;;;;7400075;19;20167;-72
2022/03/24 03:28:13;;;;;;;18.80;12.98;;;7.60;49.10;;;;;;7387625;19;20592;-72
2022/03/24 03:30:43;;;;;;;21.35;13.95;;;7.50;49.00;;;;;;7360972;19;20142;-70
2022/03/24 03:33:13;;;;;;;25.20;14.27;;;7.70;48.80;;;;;;7374332;19;20145;-72
2022/03/24 03:35:44;;;;;;;19.17;13.20;;;7.70;48.90;;;;;;7361122;19;21394;-71
2022/03/24 03:38:18;;;;;;;25.50;14.55;;;7.60;49.10;;;;;;7352614;19;20612;-72
2022/03/24 03:40:50;;;;;;;22.30;14.73;;;7.50;49.50;;;;;;7346698;19;20154;-71
2022/03/24 03:43:19;;;;;;;27.90;14.40;;;7.50;49.70;;;;;;7374367;19;20979;-73
2022/03/24 03:45:49;;;;;;;21.83;14.43;;;7.50;49.90;;;;;;7355582;19;20135;-73
2022/03/24 03:48:18;;;;;;;20.92;13.73;;;7.40;50.20;;;;;;7357608;19;20161;-72
2022/03/24 03:50:48;;;;;;;25.10;13.70;;;7.50;50.30;;;;;;7346418;19;20159;-73
2022/03/24 03:53:21;;;;;;;19.85;13.73;;;7.50;50.10;;;;;;7354028;19;20147;-73
2022/03/24 03:55:51;;;;;;;23.85;13.52;;;7.50;50.20;;;;;;7356585;19;20215;-71
2022/03/24 03:58:20;;;;;;;22.70;14.00;;;7.50;50.30;;;;;;7372098;19;20727;-74
2022/03/24 04:00:56;;;;;;;22.58;14.82;;;7.50;50.20;;;;;;7358381;19;20679;-74
2022/03/24 04:03:26;;;;;;;24.80;15.68;;;7.50;50.20;;;;;;7359105;19;20156;-74
2022/03/24 04:05:56;;;;;;;23.55;14.65;;;7.50;49.80;;;;;;7354529;19;20139;-72
2022/03/24 04:08:29;;;;;;;22.15;14.18;;;7.50;50.30;;;;;;7351198;19;20219;-72
2022/03/24 04:10:59;;;;;;;24.85;15.00;;;7.30;50.00;;;;;;7354444;19;21132;-71
2022/03/24 04:13:28;;;;;;;24.38;13.98;;;7.40;49.80;;;;;;7367706;19;20147;-72
2022/03/24 04:15:58;;;;;;;25.23;14.93;;;7.40;49.70;;;;;;7355765;19;20155;-72
2022/03/24 04:18:27;;;;;;;21.52;13.50;;;7.40;50.30;;;;;;7372257;19;20138;-72
2022/03/24 04:20:57;;;;;;;21.88;13.30;;;7.40;50.50;;;;;;7357617;19;20132;-72
2022/03/24 04:23:29;;;;;;;21.08;13.63;;;7.30;50.50;;;;;;7353265;19;20164;-71
2022/03/24 04:25:59;;;;;;;25.30;14.52;;;7.30;50.30;;;;;;7352739;19;20472;-71
2022/03/24 04:28:29;;;;;;;19.30;13.40;;;7.20;50.80;;;;;;7349870;19;20151;-71
2022/03/24 04:30:59;;;;;;;20.05;12.27;;;7.20;50.90;;;;;;7357239;19;20601;-72
2022/03/24 04:33:28;;;;;;;21.95;15.10;;;7.30;50.60;;;;;;7351221;19;20131;-72
2022/03/24 04:35:58;;;;;;;21.75;13.63;;;7.20;50.70;;;;;;7351402;19;20767;-72
2022/03/24 04:38:30;;;;;;;25.08;15.63;;;7.20;50.70;;;;;;7344709;19;20131;-72
2022/03/24 04:41:00;;;;;;;20.05;13.85;;;7.20;50.50;;;;;;7362820;19;20136;-72
2022/03/24 04:43:30;;;;;;;23.08;12.13;;;7.20;50.70;;;;;;7371530;19;20131;-72
2022/03/24 04:45:59;;;;;;;22.08;13.65;;;7.10;50.70;;;;;;7345249;19;20215;-72
2022/03/24 04:48:35;;;;;;;24.77;14.05;;;7.00;50.60;;;;;;7346891;19;20144;-71
2022/03/24 04:51:07;;;;;;;22.55;14.48;;;7.10;50.60;;;;;;7344182;19;20223;-72
2022/03/24 04:53:39;;;;;;;24.85;14.32;;;7.10;50.60;;;;;;7344780;19;20143;-72
2022/03/24 04:56:10;;;;;;;22.00;13.60;;;7.10;50.60;;;;;;7338502;19;20182;-72
2022/03/24 04:58:39;;;;;;;19.85;12.63;;;7.20;50.30;;;;;;7340764;19;20152;-71
2022/03/24 05:01:09;;;;;;;22.52;14.32;;;7.10;50.50;;;;;;7335717;19;20144;-71
2022/03/24 05:03:38;;;;;;;23.60;13.27;;;7.00;50.60;;;;;;7372226;19;20131;-72
2022/03/24 05:06:08;;;;;;;18.38;12.30;;;6.90;50.40;;;;;;7343768;19;20172;-72
2022/03/24 05:08:40;;;;;;;25.98;13.38;;;6.70;50.60;;;;;;7347855;19;20143;-73
2022/03/24 05:11:10;;;;;;;24.40;14.57;;;6.70;51.00;;;;;;7338173;19;20873;-72
2022/03/24 05:13:39;;;;;;;24.48;13.43;;;6.80;51.50;;;;;;7350531;19;20135;-72
2022/03/24 05:16:09;;;;;;;22.88;14.15;;;6.80;51.50;;;;;;7347919;19;20144;-72
2022/03/24 05:18:38;;;;;;;23.73;14.00;;;6.90;51.20;;;;;;7343771;19;20148;-72
2022/03/24 05:21:08;;;;;;;20.90;12.45;;;6.70;51.00;;;;;;7358562;19;20136;-73
2022/03/24 05:23:40;;;;;;;26.70;14.50;;;6.80;51.10;;;;;;7370092;19;20819;-72
2022/03/24 05:26:10;;;;;;;27.85;15.20;;;6.90;50.70;;;;;;7366441;19;20178;-71
2022/03/24 05:28:40;;;;;;;26.27;15.90;;;7.00;50.80;;;;;;7350117;19;21193;-76
2022/03/24 05:31:10;;;;;;;25.08;15.75;;;6.80;51.30;;;;;;7354705;19;20139;-76
2022/03/24 05:33:39;;;;;;;34.00;15.30;;;6.50;51.90;;;;;;7352562;19;20160;-76
2022/03/24 05:36:09;;;;;;;24.63;14.50;;;6.30;52.40;;;;;;7360089;19;20135;-77
2022/03/24 05:38:41;;;;;;;24.35;15.02;;;6.20;52.60;;;;;;7353326;19;20142;-77
2022/03/24 05:41:13;;;;;;;24.20;14.50;;;6.00;53.00;;;;;;7352437;19;20151;-76
2022/03/24 05:44:02;;;;;;;31.25;16.30;;;5.90;53.00;;;;;;7349536;19;20138;-76
2022/03/24 05:46:34;;;;;;;26.20;15.77;;;6.00;52.90;;;;;;7351129;19;20162;-77
2022/03/24 05:49:06;;;;;;;25.30;15.13;;;6.10;53.40;;;;;;7350428;19;20170;-76
2022/03/24 05:51:55;;;;;;;25.98;16.65;;;6.10;53.30;;;;;;7353782;19;21067;-76
2022/03/24 05:54:27;;;;;;;25.48;15.45;;;6.20;53.30;;;;;;7369832;19;20159;-76
2022/03/24 05:56:59;;;;;;;26.02;13.98;;;6.20;53.60;;;;;;7373624;19;20190;-77
2022/03/24 05:59:29;;;;;;;30.80;15.88;;;6.30;53.70;;;;;;7368497;19;20132;-76
2022/03/24 06:02:00;;;;;;;26.20;15.30;;;6.40;53.50;;;;;;7377231;19;20684;-82
2022/03/24 06:04:30;;;;;;;25.13;13.88;;;6.50;53.20;;;;;;7376519;19;20623;-82
2022/03/24 06:07:01;;;;;;;23.55;13.98;;;6.60;53.00;;;;;;7384589;19;20151;-83
2022/03/24 06:09:34;;;;;;;27.67;15.60;;;6.70;53.20;;;;;;7378999;19;20135;-82
2022/03/24 06:12:06;;;;;;;28.88;16.40;;;6.70;53.40;;;;;;7382861;19;20144;-82
2022/03/24 06:14:35;;;;;;;31.33;18.52;;;6.70;53.10;;;;;;7384590;19;20173;-82
2022/03/24 06:17:08;;;;;;;29.30;17.73;;;6.80;52.60;;;;;;7379938;19;20808;-80
2022/03/24 06:19:38;;;;;;;28.40;16.60;;;6.80;52.40;;;;;;7376870;19;20718;-80
2022/03/24 06:22:08;;;;;;;24.42;15.70;;;6.70;52.70;;;;;;7407396;19;20611;-79
2022/03/24 06:24:43;;;;;;;28.13;15.70;;;6.70;52.80;;;;;;7415360;19;20157;-75
2022/03/24 06:27:12;;;;;;;28.85;16.08;;;6.80;52.90;;;;;;7414382;19;20146;-79
2022/03/24 06:29:45;;;;;;;30.08;16.20;;;6.80;53.00;;;;;;7401375;19;20120;-81
2022/03/24 06:32:15;;;;;;;27.23;16.45;;;6.90;53.10;;;;;;7406595;19;20128;-81
2022/03/24 06:34:47;;;;;;;26.30;16.98;;;7.00;52.70;;;;;;7412569;19;20132;-81
2022/03/24 06:37:17;;;;;;;25.95;16.63;;;7.00;52.60;;;;;;7413062;19;20134;-80
2022/03/24 06:39:49;;;;;;;31.20;17.80;;;7.20;53.20;;;;;;7419313;19;20176;-81
2022/03/24 06:42:19;;;;;;;31.13;17.63;;;7.20;51.90;;;;;;7423315;19;20128;-81
2022/03/24 06:44:48;;;;;;;29.67;16.58;;;7.30;51.40;;;;;;7424959;19;20140;-81
2022/03/24 06:47:18;;;;;;;25.95;15.57;;;7.40;52.30;;;;;;7428547;19;20136;-81
2022/03/24 06:49:47;;;;;;;26.40;16.95;;;7.40;51.90;;;;;;7430347;19;20132;-81
2022/03/24 06:52:17;;;;;;;25.35;16.00;;;7.50;51.60;;;;;;7430622;19;20175;-81
2022/03/24 06:54:54;;;;;;;30.67;17.88;;;7.60;50.80;;;;;;7429611;19;20164;-81
2022/03/24 06:57:24;;;;;;;31.05;16.20;;;7.80;50.60;;;;;;7404981;19;20159;-82
2022/03/24 06:59:53;;;;;;;57.88;22.95;;;8.00;50.30;;;;;;7393997;19;20146;-81
2022/03/24 07:02:23;;;;;;;26.40;18.02;;;8.30;51.70;;;;;;7392731;19;20817;-81
2022/03/24 07:04:55;;;;;;;28.08;17.52;;;8.60;49.00;;;;;;7386185;19;20155;-80
2022/03/24 07:07:25;;;;;;;32.30;17.13;;;8.80;48.70;;;;;;7386406;19;20143;-81
2022/03/24 07:10:00;;;;;;;24.88;16.30;;;9.00;48.10;;;;;;7386223;19;20813;-81
2022/03/24 07:12:34;;;;;;;26.30;17.00;;;9.30;47.70;;;;;;7383510;19;20154;-81
2022/03/24 07:15:03;;;;;;;28.57;16.47;;;9.60;46.50;;;;;;7382402;19;20408;-80
2022/03/24 07:17:33;;;;;;;25.60;16.87;;;9.90;46.70;;;;;;7380206;19;20407;-82
2022/03/24 07:20:03;;;;;;;24.63;16.00;;;10.20;44.90;;;;;;7381432;19;21423;-83
2022/03/24 07:22:35;;;;;;;28.53;15.63;;;10.50;44.50;;;;;;7384998;19;20542;-84
2022/03/24 07:25:09;;;;;;;30.97;18.03;;;10.80;44.40;;;;;;7385400;19;20521;-84
2022/03/24 07:27:42;;;;;;;24.43;16.57;;;10.90;44.40;;;;;;7387754;19;20773;-83
2022/03/24 07:30:14;;;;;;;26.87;17.20;;;11.10;44.30;;;;;;7384924;19;20372;-83
2022/03/24 07:32:45;;;;;;;28.13;17.37;;;11.20;42.20;;;;;;7385838;19;20439;-83
2022/03/24 07:35:16;;;;;;;29.40;16.63;;;11.20;41.70;;;;;;7393512;19;20383;-84
2022/03/24 07:37:46;;;;;;;25.30;15.80;;;11.50;41.70;;;;;;7395734;19;20444;-83
2022/03/24 07:40:21;;;;;;;27.07;18.60;;;11.80;42.10;;;;;;7398389;19;20947;-83
2022/03/24 07:42:52;;;;;;;31.57;17.40;;;12.00;41.40;;;;;;7399483;19;20407;-83
2022/03/24 07:45:25;;;;;;;30.27;17.60;;;12.10;40.90;;;;;;7402507;19;20379;-84
2022/03/24 07:48:25;;;;;;;26.17;18.27;;;12.20;41.10;;;;;;7409220;19;20396;-83
2022/03/24 07:50:56;;;;;;;27.27;17.97;;;12.20;40.90;;;;;;7398550;19;20434;-82
2022/03/24 07:53:54;;;;;;;33.03;19.00;;;12.30;40.70;;;;;;7393977;19;20947;-83
2022/03/24 07:56:27;;;;;;;26.57;17.60;;;12.40;39.90;;;;;;7389587;19;20432;-83
2022/03/24 07:58:57;;;;;;;33.83;19.10;;;12.40;40.00;;;;;;7390568;19;20393;-84
2022/03/24 08:01:29;;;;;;;38.10;18.63;;;12.40;40.40;;;;;;7390415;19;21254;-84
2022/03/24 08:04:00;;;;;;;26.23;18.03;;;12.40;40.10;;;;;;7390762;19;20442;-83
2022/03/24 08:06:31;;;;;;;28.17;17.43;;;12.40;40.90;;;;;;7390720;19;20396;-83
2022/03/24 08:09:01;;;;;;;28.57;18.50;;;12.40;40.10;;;;;;7390611;19;20517;-83
2022/03/24 08:11:34;;;;;;;29.87;19.40;;;12.40;39.90;;;;;;7386990;19;20395;-84
2022/03/24 08:14:03;;;;;;;30.83;16.70;;;12.40;40.30;;;;;;7386424;19;20416;-84
2022/03/24 08:16:33;;;;;;;27.43;17.80;;;12.50;40.10;;;;;;7388551;19;20817;-84
2022/03/24 08:19:02;;;;;;;24.77;18.97;;;12.40;39.80;;;;;;7389839;19;20509;-84
2022/03/24 08:21:34;;;;;;;29.13;19.00;;;12.30;40.00;;;;;;7389934;19;21090;-83
2022/03/24 08:24:03;;;;;;;30.20;17.50;;;12.40;40.20;;;;;;7388140;19;20400;-84
2022/03/24 08:26:36;;;;;;;25.20;18.40;;;12.50;40.30;;;;;;7386187;19;20408;-83
2022/03/24 08:29:06;;;;;;;27.13;19.10;;;12.70;40.60;;;;;;7388179;19;21166;-84
2022/03/24 08:31:35;;;;;;;27.50;17.87;;;13.00;40.10;;;;;;7388199;19;20424;-84
2022/03/24 08:34:05;;;;;;;24.37;17.17;;;13.50;40.00;;;;;;7385151;19;20412;-83
2022/03/24 08:36:34;;;;;;;25.70;17.70;;;14.30;39.00;;;;;;7383557;19;20400;-83
2022/03/24 08:39:04;;;;;;;24.03;17.60;;;15.10;38.40;;;;;;7382331;19;20652;-85
2022/03/24 08:41:36;;;;;;;29.07;18.93;;;15.80;36.60;;;;;;7385474;19;21227;-83
2022/03/24 08:44:08;;;;;;;26.73;16.87;;;16.50;35.60;;;;;;7382495;19;20407;-83
2022/03/24 08:46:37;;;;;;;23.03;17.90;;;17.20;34.00;;;;;;7381639;19;20412;-83
2022/03/24 08:49:07;;;;;;;25.33;18.40;;;17.80;33.00;;;;;;7383437;19;21032;-83
2022/03/24 08:51:37;;;;;;;24.10;17.33;;;18.40;32.00;;;;;;7382990;19;20786;-85
2022/03/24 08:54:07;;;;;;;25.33;19.47;;;18.80;31.40;;;;;;7380446;19;20352;-83
2022/03/24 08:56:40;;;;;;;23.50;19.37;;;19.40;31.20;;;;;;7379677;19;20440;-85
2022/03/24 08:59:09;;;;;;;26.40;18.43;;;20.00;29.70;;;;;;7384246;19;20416;-85
2022/03/24 09:01:43;;;;;;;22.53;17.90;;;20.60;28.60;;;;;;7381637;19;20434;-85
2022/03/24 09:04:13;;;;;;;25.20;21.73;;;21.20;28.20;;;;;;7381672;19;20959;-85
2022/03/24 09:06:44;;;;;;;22.83;18.17;;;21.80;27.50;;;;;;7382422;19;20420;-85
2022/03/24 09:09:16;;;;;;;22.57;20.00;;;22.40;26.80;;;;;;7380667;19;20445;-85
2022/03/24 09:11:48;;;;;;;25.90;20.70;;;23.00;26.30;;;;;;7382642;19;20983;-85
2022/03/24 09:14:19;;;;;;;27.80;21.00;;;23.50;25.20;;;;;;7383004;19;21062;-85
2022/03/24 09:16:51;;;;;;;23.13;20.70;;;23.90;25.00;;;;;;7385003;19;20443;-85
2022/03/24 09:19:20;;;;;;;26.63;19.17;;;24.20;24.20;;;;;;7383435;19;20396;-84
2022/03/24 09:21:49;;;;;;;28.30;20.17;;;24.90;24.10;;;;;;7384659;19;20400;-85
2022/03/24 09:24:19;;;;;;;25.17;19.53;;;25.60;23.50;;;;;;7380935;19;20420;-84
2022/03/24 09:26:53;;;;;;;22.77;19.50;;;26.30;23.00;;;;;;7369026;19;20404;-83
2022/03/24 09:29:23;;;;;;;31.43;21.60;;;26.90;21.70;;;;;;7361942;19;20396;-84
2022/03/24 09:31:53;;;;;;;24.50;20.63;;;27.40;21.40;;;;;;7365168;19;20412;-85
2022/03/24 09:34:25;;;;;;;25.57;21.37;;;27.80;20.80;;;;;;7360637;19;20400;-86
2022/03/24 09:36:57;;;;;;;24.13;20.33;;;27.90;20.70;;;;;;7352572;19;20495;-81
2022/03/24 09:39:26;;;;;;;26.30;21.47;;;28.50;19.80;;;;;;7356628;19;21683;-81
2022/03/24 09:42:01;;;;;;;24.23;21.53;;;29.10;19.30;;;;;;7370099;19;20414;-80
2022/03/24 09:44:34;;;;;;;23.80;20.87;;;29.30;19.20;;;;;;7392710;19;20887;-76
2022/03/24 09:47:03;;;;;;;25.10;21.43;;;29.90;18.70;;;;;;7411202;19;20420;-75
2022/03/24 09:49:33;;;;;;;24.80;21.33;;;30.30;18.20;;;;;;7368653;19;20393;-78
2022/03/24 09:52:03;;;;;;;24.20;20.30;;;30.40;17.80;;;;;;7368225;19;20842;-78
2022/03/24 09:54:32;;;;;;;26.30;21.23;;;30.70;18.00;;;;;;7383061;19;20848;-77
2022/03/24 09:57:10;;;;;;;25.73;20.07;;;31.10;17.50;;;;;;7371843;19;20453;-77
2022/03/24 09:59:39;;;;;;;27.90;20.20;;;31.40;17.20;;;;;;7363255;19;20400;-76
2022/03/24 10:02:11;;;;;;;26.70;21.33;;;31.30;17.30;;;;;;7376309;19;20443;-77
2022/03/24 10:04:48;;;;;;;23.40;21.00;;;31.90;16.50;;;;;;7380841;19;20409;-77
2022/03/24 10:07:19;;;;;;;24.47;21.80;;;32.20;16.20;;;;;;7382770;19;20661;-79
2022/03/24 10:09:53;;;;;;;24.27;20.27;;;32.50;16.30;;;;;;7411923;19;20389;-81
2022/03/24 10:12:26;;;;;;;20.67;18.57;;;33.00;15.40;;;;;;7412148;19;21018;-81
2022/03/24 10:15:01;;;;;;;24.17;21.77;;;33.30;14.90;;;;;;7397682;19;20404;-81
2022/03/24 10:17:31;;;;;;;20.70;18.70;;;33.90;14.10;;;;;;7388455;19;20432;-80
2022/03/24 10:20:03;;;;;;;21.47;18.70;;;34.10;14.40;;;;;;7383493;19;20403;-80
2022/03/24 10:22:33;;;;;;;21.20;18.90;;;34.90;13.40;;;;;;7378026;19;20479;-81
2022/03/24 10:25:03;;;;;;;22.73;19.73;;;34.60;12.60;;;;;;7380857;19;20762;-80
2022/03/24 10:27:35;;;;;;;21.90;19.77;;;34.80;13.10;;;;;;7379042;19;20946;-80
2022/03/24 10:30:05;;;;;;;24.63;20.80;;;35.20;13.00;;;;;;7381449;19;20765;-81
2022/03/24 10:32:36;;;;;;;23.13;20.73;;;36.00;12.80;;;;;;7361366;19;20446;-80
2022/03/24 10:35:13;;;;;;;23.27;19.40;;;35.90;13.00;;;;;;7372299;19;20424;-81
2022/03/24 10:37:51;;;;;;;23.57;20.93;;;36.20;12.90;;;;;;7376299;19;20411;-80
2022/03/24 10:40:21;;;;;;;21.43;19.30;;;36.80;12.80;;;;;;7379256;19;21348;-81
2022/03/24 10:42:57;;;;;;;22.83;20.40;;;37.10;12.20;;;;;;7377681;19;20376;-81
2022/03/24 10:45:29;;;;;;;23.10;20.53;;;37.50;11.80;;;;;;7376989;19;20483;-80
2022/03/24 10:48:02;;;;;;;20.20;18.30;;;37.90;12.00;;;;;;7374890;19;20400;-80
2022/03/24 10:50:38;;;;;;;22.27;20.17;;;38.50;11.30;;;;;;7377585;19;20392;-80
2022/03/24 10:53:11;;;;;;;21.20;18.93;;;38.40;11.10;;;;;;7379123;19;20809;-80
2022/03/24 10:55:55;;;;;;;18.57;16.70;;;38.70;10.80;;;;;;7375743;19;20482;-80
2022/03/24 10:58:35;;;;;;;25.03;19.37;;;39.10;10.50;;;;;;7376442;19;20495;-80
2022/03/24 11:01:10;;;;;;;23.57;18.83;;;39.40;10.60;;;;;;7377742;19;21032;-80
2022/03/24 11:03:43;;;;;;;28.60;21.67;;;39.70;10.90;;;;;;7377504;19;20402;-80
2022/03/24 11:06:17;;;;;;;28.10;21.80;;;39.90;11.30;;;;;;7376259;19;20781;-80
2022/03/24 11:08:55;;;;;;;27.20;20.90;;;40.30;10.60;;;;;;7379636;19;20400;-81
2022/03/24 11:11:27;;;;;;;29.40;22.90;;;40.70;10.70;;;;;;7384611;19;20396;-80
2022/03/24 11:14:00;;;;;;;20.13;18.23;;;41.00;11.30;;;;;;7385496;19;20423;-80
2022/03/24 11:16:31;;;;;;;23.37;20.47;;;40.70;10.40;;;;;;7381617;19;21358;-80
2022/03/24 11:19:02;;;;;;;23.13;20.67;;;40.10;12.00;;;;;;7386138;19;20424;-79
2022/03/24 11:21:54;;;;;;;21.73;19.27;;;40.90;10.70;;;;;;7385780;19;20375;-80
2022/03/24 11:24:24;;;;;;;61.77;36.27;;;41.50;10.30;;;;;;7386121;19;20429;-80
2022/03/24 11:26:56;;;;;;;23.87;18.73;;;41.70;11.70;;;;;;7388556;19;20504;-79
2022/03/24 11:29:28;;;;;;;18.70;16.83;;;42.20;10.60;;;;;;7386966;19;20384;-80
2022/03/24 11:32:02;;;;;;;22.67;19.77;;;42.30;9.70;;;;;;7387281;19;20391;-79
2022/03/24 11:34:33;;;;;;;19.70;17.80;;;41.60;10.80;;;;;;7384358;19;20396;-79
2022/03/24 11:37:06;;;;;;;19.13;17.10;;;41.80;10.00;;;;;;7382461;19;21083;-81
2022/03/24 11:39:37;;;;;;;17.40;15.70;;;41.80;10.10;;;;;;7387407;19;20387;-80
2022/03/24 11:42:07;;;;;;;17.60;15.70;;;41.90;9.30;;;;;;7388413;19;20483;-79
2022/03/24 11:44:50;;;;;;;18.37;16.47;;;41.90;9.50;;;;;;7385968;19;20479;-80
2022/03/24 11:47:20;;;;;;;14.40;12.97;;;42.40;9.30;;;;;;7389248;19;20742;-79
2022/03/24 11:50:09;;;;;;;13.83;12.60;;;42.50;9.00;;;;;;7391465;19;20395;-80
2022/03/24 11:52:38;;;;;;;14.60;13.30;;;42.80;8.80;;;;;;7396350;19;20450;-80
2022/03/24 11:55:16;;;;;;;14.03;12.63;;;42.50;9.00;;;;;;7394813;19;20428;-79
2022/03/24 11:58:02;;;;;;;14.37;12.97;;;42.60;8.50;;;;;;7397929;19;20381;-79
2022/03/24 12:00:51;;;;;;;14.13;12.77;;;42.60;9.10;;;;;;7398179;19;21125;-80
2022/03/24 12:03:46;;;;;;;14.87;13.47;;;42.40;8.40;;;;;;7390346;19;20412;-80
2022/03/24 12:06:17;;;;;;;14.80;13.40;;;41.70;9.10;;;;;;7387662;19;20404;-79
2022/03/24 12:08:53;;;;;;;15.43;13.90;;;41.80;9.20;;;;;;7387112;19;20524;-80
2022/03/24 12:11:40;;;;;;;15.47;13.83;;;41.80;8.60;;;;;;7386133;19;20410;-80
2022/03/24 12:14:13;;;;;;;17.80;15.00;;;42.20;9.20;;;;;;7384000;19;20943;-80
2022/03/24 12:16:46;;;;;;;14.63;13.13;;;41.70;9.40;;;;;;7382091;19;20408;-80
2022/03/24 12:19:37;;;;;;;14.57;13.27;;;42.30;9.10;;;;;;7380027;19;20435;-80
2022/03/24 12:22:36;;;;;;;14.00;12.80;;;42.40;9.10;;;;;;7380870;19;20415;-80
2022/03/24 12:25:25;;;;;;;15.37;13.97;;;43.10;8.90;;;;;;7381201;19;20886;-80
2022/03/24 12:28:33;;;;;;;15.40;13.80;;;43.00;8.60;;;;;;7381643;19;20758;-80
2022/03/24 12:31:10;;;;;;;15.67;14.07;;;42.90;8.70;;;;;;7404820;19;20423;-80
2022/03/24 12:33:50;;;;;;;15.30;13.80;;;42.50;9.10;;;;;;7418167;19;20392;-78
2022/03/24 12:36:42;;;;;;;14.50;13.13;;;41.90;9.40;;;;;;7409553;19;20420;-80
2022/03/24 12:39:11;;;;;;;15.27;13.77;;;42.70;9.10;;;;;;7415295;19;20448;-79
2022/03/24 12:41:41;;;;;;;16.67;15.07;;;43.70;9.00;;;;;;7416332;19;20453;-80
2022/03/24 12:44:13;;;;;;;15.50;14.00;;;43.20;8.80;;;;;;7421042;19;20419;-78
2022/03/24 12:46:45;;;;;;;14.73;13.33;;;42.10;9.30;;;;;;7430647;19;20422;-79
2022/03/24 12:49:38;;;;;;;15.30;13.87;;;41.90;9.40;;;;;;7431036;19;20471;-80
2022/03/24 12:52:13;;;;;;;14.77;13.23;;;42.00;9.30;;;;;;7432358;19;20416;-81
2022/03/24 12:54:45;;;;;;;16.00;13.80;;;42.60;9.40;;;;;;7432414;19;20412;-79
2022/03/24 12:57:27;;;;;;;14.73;13.23;;;42.60;9.20;;;;;;7423732;19;20449;-81
2022/03/24 13:00:00;;;;;;;13.97;12.47;;;42.80;9.10;;;;;;7396182;19;20355;-80